createdAt,value
2023-03-26T00:01:15.751Z,98575.50
2023-03-26T00:03:47.338Z,98582.34
2023-03-26T00:06:17.129Z,98571.91
2023-03-26T00:08:45.864Z,98575.97
2023-03-26T00:11:16.138Z,98573.53
2023-03-26T00:13:44.453Z,98576.31
2023-03-26T00:16:14.142Z,98573.50
2023-03-26T00:18:42.694Z,98573.34
2023-03-26T00:21:13.474Z,98578.72
2023-03-26T00:23:41.638Z,98575.31
2023-03-26T00:26:12.103Z,98577.94
2023-03-26T00:28:41.561Z,98584.28
2023-03-26T00:31:12.455Z,98573.53
2023-03-26T00:33:41.529Z,98576.47
2023-03-26T00:36:17.757Z,98570.59
2023-03-26T00:38:45.233Z,98576.94
2023-03-26T00:41:23.046Z,98573.53
2023-03-26T00:43:53.549Z,98576.16
2023-03-26T00:46:20.575Z,98571.75
2023-03-26T00:48:47.686Z,98565.72
2023-03-26T00:51:19.329Z,98557.56
2023-03-26T00:53:48.312Z,98553.31
2023-03-26T00:56:15.323Z,98556.75
2023-03-26T00:58:43.051Z,98560.81
2023-03-26T01:01:14.419Z,98551.19
2023-03-26T01:03:53.161Z,98546.00
2023-03-26T01:06:35.601Z,98537.69
2023-03-26T01:09:12.990Z,98540.94
2023-03-26T01:11:45.610Z,98534.44
2023-03-26T01:14:16.884Z,98530.03
2023-03-26T01:16:50.182Z,98533.97
2023-03-26T01:19:26.172Z,98543.22
2023-03-26T01:21:54.005Z,98537.69
2023-03-26T01:24:22.417Z,98545.34
2023-03-26T01:27:09.695Z,98552.53
2023-03-26T01:29:39.624Z,98552.69
2023-03-26T01:32:18.571Z,98545.84
2023-03-26T01:35:06.406Z,98542.28
2023-03-26T01:38:10.894Z,98542.28
2023-03-26T01:40:56.245Z,98531.50
2023-03-26T01:43:26.329Z,98535.75
2023-03-26T01:45:54.536Z,98523.69
2023-03-26T01:48:28.215Z,98519.63
2023-03-26T01:50:56.499Z,98523.69
2023-03-26T01:53:23.733Z,98517.69
2023-03-26T01:56:19.628Z,98518.00
2023-03-26T01:58:46.806Z,98519.63
2023-03-26T02:01:27.958Z,98518.81
2023-03-26T02:04:06.970Z,98515.56
2023-03-26T02:07:02.145Z,98515.72
2023-03-26T02:09:32.756Z,98502.84
2023-03-26T02:12:03.821Z,98514.28
2023-03-26T02:14:31.417Z,98513.59
2023-03-26T02:17:19.378Z,98502.88
2023-03-26T02:19:48.125Z,98507.28
2023-03-26T02:22:15.914Z,98505.78
2023-03-26T02:24:45.162Z,98504.00
2023-03-26T02:27:13.687Z,98504.84
2023-03-26T02:29:41.236Z,98512.81
2023-03-26T02:32:14.123Z,98503.50
2023-03-26T02:34:42.151Z,98502.88
2023-03-26T02:37:10.343Z,98510.38
2023-03-26T02:39:40.812Z,98497.00
2023-03-26T02:42:16.276Z,98504.47
2023-03-26T02:44:47.912Z,98492.63
2023-03-26T02:47:20.925Z,98499.59
2023-03-26T02:49:54.154Z,98502.03
2023-03-26T02:52:50.155Z,98492.09
2023-03-26T02:55:18.013Z,98492.78
2023-03-26T02:57:50.875Z,98485.94
2023-03-26T03:00:22.823Z,98483.97
2023-03-26T03:02:50.698Z,98477.97
2023-03-26T03:05:29.025Z,98480.09
2023-03-26T03:08:18.552Z,98476.50
2023-03-26T03:11:11.605Z,98475.50
2023-03-26T03:13:48.654Z,98468.84
2023-03-26T03:16:20.184Z,98471.47
2023-03-26T03:18:54.360Z,98466.41
2023-03-26T03:21:24.343Z,98463.97
2023-03-26T03:23:51.388Z,98463.13
2023-03-26T03:26:27.918Z,98468.34
2023-03-26T03:28:56.784Z,98465.09
2023-03-26T03:31:26.025Z,98461.03
2023-03-26T03:33:56.291Z,98451.94
2023-03-26T03:36:24.319Z,98468.66
2023-03-26T03:39:03.013Z,98444.59
2023-03-26T03:41:31.950Z,98444.44
2023-03-26T03:44:01.801Z,98447.50
2023-03-26T03:46:31.939Z,98443.63
2023-03-26T03:49:02.253Z,98434.84
2023-03-26T03:51:33.661Z,98427.66
2023-03-26T03:54:03.823Z,98429.78
2023-03-26T03:56:57.646Z,98431.53
2023-03-26T04:00:00.324Z,98422.59
2023-03-26T04:02:34.801Z,98425.34
2023-03-26T04:05:06.151Z,98420.13
2023-03-26T04:07:33.446Z,98429.25
2023-03-26T04:10:09.099Z,98422.56
2023-03-26T04:12:54.973Z,98415.25
2023-03-26T04:15:37.920Z,98411.97
2023-03-26T04:18:10.430Z,98416.84
2023-03-26T04:20:46.821Z,98380.06
2023-03-26T04:23:22.567Z,98412.56
2023-03-26T04:25:58.113Z,98401.81
2023-03-26T04:28:49.301Z,98401.16
2023-03-26T04:31:29.457Z,98392.03
2023-03-26T04:34:06.510Z,98393.28
2023-03-26T04:36:40.814Z,98391.00
2023-03-26T04:39:11.900Z,98397.53
2023-03-26T04:41:58.027Z,98387.78
2023-03-26T04:44:30.428Z,98392.59
2023-03-26T04:47:04.207Z,98381.38
2023-03-26T04:49:42.749Z,98384.78
2023-03-26T04:52:14.918Z,98382.50
2023-03-26T04:54:48.100Z,98379.84
2023-03-26T04:57:29.791Z,98376.19
2023-03-26T05:00:15.144Z,98373.25
2023-03-26T05:03:01.142Z,98377.22
2023-03-26T05:09:46.471Z,98381.19
2023-03-26T05:12:22.476Z,98379.41
2023-03-26T05:15:06.297Z,98369.06
2023-03-26T05:17:49.752Z,98372.97
2023-03-26T05:20:27.816Z,98369.19
2023-03-26T05:22:58.647Z,98374.56
2023-03-26T05:25:29.037Z,98369.34
2023-03-26T05:27:57.005Z,98371.06
2023-03-26T05:30:28.212Z,98365.13
2023-03-26T05:32:59.265Z,98371.97
2023-03-26T05:35:31.447Z,98379.16
2023-03-26T05:37:58.619Z,98377.84
2023-03-26T05:40:26.494Z,98371.78
2023-03-26T05:42:59.499Z,98373.69
2023-03-26T05:45:47.913Z,98373.69
2023-03-26T05:48:35.632Z,98362.91
2023-03-26T05:51:02.655Z,98377.06
2023-03-26T05:53:32.375Z,98356.19
2023-03-26T05:56:18.146Z,98360.56
2023-03-26T05:59:03.772Z,98369.44
2023-03-26T06:01:51.007Z,98359.63
2023-03-26T06:04:56.980Z,98351.78
2023-03-26T06:07:52.228Z,98348.53
2023-03-26T06:10:20.403Z,98353.41
2023-03-26T06:12:47.890Z,98332.69
2023-03-26T06:15:15.063Z,98330.81
2023-03-26T06:18:02.771Z,98325.25
2023-03-26T06:21:09.498Z,98331.28
2023-03-26T06:24:01.654Z,98320.19
2023-03-26T06:26:47.767Z,98323.59
2023-03-26T06:29:41.858Z,98318.56
2023-03-26T06:32:20.349Z,98316.56
2023-03-26T06:35:14.406Z,98311.63
2023-03-26T06:37:42.569Z,98307.94
2023-03-26T06:40:10.213Z,98303.97
2023-03-26T06:43:08.342Z,98298.72
2023-03-26T06:45:52.549Z,98302.34
2023-03-26T06:48:43.322Z,98292.88
2023-03-26T06:51:30.802Z,98288.09
2023-03-26T06:54:03.548Z,98288.91
2023-03-26T06:57:03.453Z,98291.72
2023-03-26T06:59:49.234Z,98283.97
2023-03-26T07:02:36.146Z,98287.91
2023-03-26T07:05:22.688Z,98279.09
2023-03-26T07:08:08.581Z,98271.09
2023-03-26T07:10:54.266Z,98273.63
2023-03-26T07:13:40.295Z,98268.66
2023-03-26T07:16:26.130Z,98255.41
2023-03-26T07:18:56.547Z,98251.00
2023-03-26T07:21:29.351Z,98246.59
2023-03-26T07:23:57.085Z,98246.47
2023-03-26T07:27:17.843Z,98243.69
2023-03-26T07:30:04.718Z,98238.84
2023-03-26T07:33:06.117Z,98236.59
2023-03-26T07:36:21.450Z,98238.28
2023-03-26T07:39:35.451Z,98241.25
2023-03-26T07:42:27.963Z,98233.63
2023-03-26T07:45:30.060Z,98236.78
2023-03-26T07:48:22.069Z,98213.34
2023-03-26T07:51:12.586Z,98221.47
2023-03-26T07:54:10.590Z,98212.00
2023-03-26T07:57:04.505Z,98215.72
2023-03-26T07:59:57.230Z,98208.22
2023-03-26T08:02:58.297Z,98209.41
2023-03-26T08:05:52.316Z,98206.63
2023-03-26T08:08:46.045Z,98209.31
2023-03-26T08:11:51.510Z,98209.94
2023-03-26T08:14:42.027Z,98210.56
2023-03-26T08:17:13.928Z,98203.25
2023-03-26T08:20:09.324Z,98199.94
2023-03-26T08:22:41.889Z,98191.28
2023-03-26T08:25:33.422Z,98185.78
2023-03-26T08:28:35.114Z,98189.84
2023-03-26T08:31:03.134Z,98200.41
2023-03-26T08:33:30.955Z,98180.66
2023-03-26T08:35:58.063Z,98187.59
2023-03-26T08:38:24.978Z,98185.88
2023-03-26T08:41:09.977Z,98183.38
2023-03-26T08:43:46.316Z,98171.31
2023-03-26T08:46:53.554Z,98175.69
2023-03-26T08:49:46.872Z,98170.66
2023-03-26T08:52:29.935Z,98165.06
2023-03-26T08:55:26.035Z,98163.38
2023-03-26T08:58:21.089Z,98163.47
2023-03-26T09:01:09.359Z,98145.56
2023-03-26T09:04:13.381Z,98158.72
2023-03-26T09:06:43.346Z,98153.94
2023-03-26T09:09:19.125Z,98148.78
2023-03-26T09:12:10.968Z,98144.56
2023-03-26T09:15:12.139Z,98147.06
2023-03-26T09:17:51.175Z,98142.22
2023-03-26T09:20:43.244Z,98148.16
2023-03-26T09:23:39.621Z,98145.81
2023-03-26T09:26:12.826Z,98137.28
2023-03-26T09:28:40.362Z,98152.03
2023-03-26T09:31:35.512Z,98142.69
2023-03-26T09:34:24.139Z,98136.47
2023-03-26T09:36:57.523Z,98130.13
2023-03-26T09:40:10.274Z,98134.19
2023-03-26T09:42:53.683Z,98123.69
2023-03-26T09:45:51.368Z,98118.16
2023-03-26T09:48:19.116Z,98105.22
2023-03-26T09:50:49.006Z,98108.38
2023-03-26T09:53:50.664Z,98107.56
2023-03-26T09:56:20.838Z,98104.66
2023-03-26T09:59:18.048Z,98107.66
2023-03-26T10:02:14.248Z,98105.88
2023-03-26T10:05:11.145Z,98114.69
2023-03-26T10:08:16.512Z,98112.81
2023-03-26T10:10:54.909Z,98105.69
2023-03-26T10:13:40.917Z,98103.72
2023-03-26T10:16:33.154Z,98103.06
2023-03-26T10:19:07.861Z,98094.06
2023-03-26T10:21:55.495Z,98101.16
2023-03-26T10:24:38.793Z,98097.38
2023-03-26T10:27:14.566Z,98093.56
2023-03-26T10:30:24.031Z,98098.66
2023-03-26T10:32:56.515Z,98089.38
2023-03-26T10:35:41.811Z,98092.34
2023-03-26T10:38:50.965Z,98089.28
2023-03-26T10:41:50.612Z,98084.44
2023-03-26T10:44:31.087Z,98080.50
2023-03-26T10:47:06.762Z,98077.34
2023-03-26T10:49:57.471Z,98085.50
2023-03-26T10:52:37.985Z,98074.38
2023-03-26T10:55:19.253Z,98075.63
2023-03-26T10:57:56.282Z,98068.28
2023-03-26T11:00:27.443Z,98074.72
2023-03-26T11:03:13.579Z,98079.50
2023-03-26T11:05:49.593Z,98079.78
2023-03-26T11:08:16.720Z,98073.47
2023-03-26T11:10:56.766Z,98073.91
2023-03-26T11:13:43.703Z,98076.91
2023-03-26T11:16:33.493Z,98071.50
2023-03-26T11:19:31.489Z,98055.31
2023-03-26T11:22:07.057Z,98069.50
2023-03-26T11:24:52.992Z,98072.84
2023-03-26T11:27:26.543Z,98063.50
2023-03-26T11:30:18.118Z,98068.53
2023-03-26T11:32:53.302Z,98068.00
2023-03-26T11:35:39.476Z,98068.44
2023-03-26T11:38:42.083Z,98059.72
2023-03-26T11:41:25.921Z,98062.50
2023-03-26T11:44:38.263Z,98068.81
2023-03-26T11:47:10.453Z,98053.88
2023-03-26T11:49:42.016Z,98056.06
2023-03-26T11:52:12.381Z,98056.31
2023-03-26T11:54:39.520Z,98055.22
2023-03-26T11:57:14.603Z,98055.47
2023-03-26T11:59:57.300Z,98058.66
2023-03-26T12:02:36.800Z,98062.00
2023-03-26T12:05:18.281Z,98051.28
2023-03-26T12:07:46.750Z,98047.13
2023-03-26T12:10:37.861Z,98051.75
2023-03-26T12:13:33.832Z,98051.56
2023-03-26T12:16:22.815Z,98051.91
2023-03-26T12:19:06.343Z,98038.41
2023-03-26T12:21:48.475Z,98036.53
2023-03-26T12:24:30.315Z,98038.69
2023-03-26T12:27:03.878Z,98043.00
2023-03-26T12:29:34.749Z,98031.41
2023-03-26T12:32:08.611Z,98034.16
2023-03-26T12:34:39.649Z,98028.34
2023-03-26T12:37:28.131Z,98020.75
2023-03-26T12:40:26.372Z,98028.69
2023-03-26T12:44:54.772Z,98026.09
2023-03-26T12:45:44.343Z,98023.47
2023-03-26T12:48:20.838Z,98017.00
2023-03-26T12:51:06.545Z,98013.84
2023-03-26T12:53:57.800Z,98023.66
2023-03-26T12:57:12.164Z,98007.38
2023-03-26T13:00:02.090Z,98021.22
2023-03-26T13:02:33.621Z,98017.00
2023-03-26T13:05:13.409Z,98021.84
2023-03-26T13:08:07.139Z,98025.47
2023-03-26T13:10:55.575Z,98014.41
2023-03-26T13:13:34.209Z,98017.34
2023-03-26T13:16:13.818Z,98024.28
2023-03-26T13:19:12.305Z,98018.63
2023-03-26T13:21:46.260Z,98018.81
2023-03-26T13:24:25.392Z,98014.13
2023-03-26T13:27:01.481Z,98020.41
2023-03-26T13:29:37.420Z,98018.09
2023-03-26T13:32:23.926Z,98016.19
2023-03-26T13:35:06.441Z,98020.97
2023-03-26T13:37:49.655Z,98009.72
2023-03-26T13:40:42.775Z,98020.25
2023-03-26T13:43:34.886Z,98006.03
2023-03-26T13:46:14.877Z,98015.28
2023-03-26T13:48:53.016Z,97999.56
2023-03-26T13:51:35.406Z,98004.59
2023-03-26T13:54:11.497Z,98000.81
2023-03-26T13:56:48.474Z,98004.31
2023-03-26T13:59:31.082Z,98004.78
2023-03-26T14:02:06.371Z,98000.22
2023-03-26T14:04:43.943Z,98010.28
2023-03-26T14:07:18.143Z,98013.84
2023-03-26T14:09:53.661Z,97995.63
2023-03-26T14:12:49.062Z,98003.00
2023-03-26T14:15:30.792Z,98008.22
2023-03-26T14:18:20.117Z,98020.00
2023-03-26T14:21:08.920Z,98010.28
2023-03-26T14:23:42.908Z,98004.59
2023-03-26T14:26:31.773Z,98012.75
2023-03-26T14:29:10.112Z,98009.88
2023-03-26T14:31:40.037Z,98004.66
2023-03-26T14:34:51.844Z,98012.84
2023-03-26T14:37:30.687Z,98016.28
2023-03-26T14:40:25.756Z,98014.41
2023-03-26T14:43:17.038Z,98015.22
2023-03-26T14:46:07.761Z,98008.75
2023-03-26T14:48:58.132Z,98007.44
2023-03-26T14:51:56.476Z,98007.28
2023-03-26T14:54:28.523Z,98005.72
2023-03-26T14:57:27.294Z,97998.25
2023-03-26T15:00:20.199Z,98007.75
2023-03-26T15:03:15.855Z,98000.25
2023-03-26T15:06:34.362Z,97999.22
2023-03-26T15:09:20.438Z,98001.91
2023-03-26T15:12:24.091Z,98001.97
2023-03-26T15:15:18.488Z,97989.47
2023-03-26T15:18:10.133Z,97991.97
2023-03-26T15:21:04.827Z,97990.97
2023-03-26T15:23:34.783Z,97991.06
2023-03-26T15:26:20.589Z,97997.56
2023-03-26T15:29:03.842Z,97995.81
2023-03-26T15:31:58.995Z,97990.63
2023-03-26T15:35:02.841Z,97996.34
2023-03-26T15:37:48.592Z,97992.06
2023-03-26T15:40:29.178Z,97996.63
2023-03-26T15:43:16.950Z,97999.16
2023-03-26T15:45:54.046Z,97995.56
2023-03-26T15:48:32.487Z,97983.59
2023-03-26T15:51:06.462Z,98002.13
2023-03-26T15:54:09.959Z,98006.00
2023-03-26T15:56:43.048Z,98001.13
2023-03-26T15:59:38.122Z,98007.28
2023-03-26T16:02:10.091Z,98009.03
2023-03-26T16:04:50.855Z,98009.41
2023-03-26T16:07:41.407Z,98005.63
2023-03-26T16:10:41.654Z,98006.56
2023-03-26T16:13:20.229Z,98007.81
2023-03-26T16:16:18.090Z,98006.00
2023-03-26T16:22:10.782Z,98008.69
2023-03-26T16:24:55.732Z,98015.44
2023-03-26T16:27:30.413Z,98004.63
2023-03-26T16:30:00.420Z,98006.78
2023-03-26T16:32:54.146Z,98005.72
2023-03-26T16:36:05.387Z,98002.84
2023-03-26T16:39:14.083Z,97999.34
2023-03-26T16:42:19.724Z,98009.97
2023-03-26T16:45:00.806Z,98009.38
2023-03-26T16:47:59.646Z,98013.91
2023-03-26T16:50:44.573Z,98017.13
2023-03-26T16:53:24.330Z,98003.38
2023-03-26T16:56:05.666Z,98013.19
2023-03-26T16:58:49.913Z,98010.84
2023-03-26T17:01:21.433Z,98016.41
2023-03-26T17:04:04.614Z,98020.38
2023-03-26T17:06:59.161Z,98019.28
2023-03-26T17:10:05.911Z,98018.03
2023-03-26T17:12:39.540Z,98010.31
2023-03-26T17:15:34.609Z,98020.97
2023-03-26T17:18:10.718Z,98019.28
2023-03-26T17:21:09.311Z,98019.72
2023-03-26T17:23:59.553Z,98023.69
2023-03-26T17:26:49.629Z,98019.66
2023-03-26T17:30:05.194Z,98026.66
2023-03-26T17:33:09.475Z,98018.66
2023-03-26T17:35:37.033Z,98023.25
2023-03-26T17:38:09.934Z,98027.47
2023-03-26T17:40:59.751Z,98025.94
2023-03-26T17:43:48.607Z,98018.47
2023-03-26T17:46:37.804Z,98019.00
2023-03-26T17:49:20.474Z,98016.41
2023-03-26T17:52:01.048Z,98018.25
2023-03-26T17:54:41.430Z,98024.41
2023-03-26T17:57:26.957Z,98016.09
2023-03-26T17:59:58.575Z,98017.38
2023-03-26T18:02:54.198Z,98015.56
2023-03-26T18:05:25.526Z,98012.75
2023-03-26T18:08:36.208Z,98011.63
2023-03-26T18:11:27.589Z,98013.97
2023-03-26T18:14:15.907Z,98009.28
2023-03-26T18:16:48.245Z,98011.44
2023-03-26T18:19:20.068Z,98001.13
2023-03-26T18:21:52.962Z,98010.53
2023-03-26T18:24:25.348Z,98018.53
2023-03-26T18:26:58.585Z,98005.09
2023-03-26T18:29:36.540Z,98004.00
2023-03-26T18:32:19.895Z,98010.66
2023-03-26T18:34:50.133Z,98004.34
2023-03-26T18:37:23.385Z,98004.78
2023-03-26T18:40:11.838Z,98006.25
2023-03-26T18:42:41.698Z,98013.53
2023-03-26T18:45:24.954Z,98003.19
2023-03-26T18:48:24.098Z,98002.50
2023-03-26T18:51:05.882Z,98006.50
2023-03-26T18:53:45.598Z,98009.84
2023-03-26T18:56:31.511Z,98011.38
2023-03-26T18:59:02.784Z,98010.75
2023-03-26T19:01:32.772Z,98005.91
2023-03-26T19:04:08.590Z,98017.22
2023-03-26T19:06:41.164Z,98016.50
2023-03-26T19:09:30.432Z,98011.38
2023-03-26T19:12:06.096Z,98017.03
2023-03-26T19:14:37.025Z,98013.91
2023-03-26T19:17:07.069Z,98019.72
2023-03-26T19:19:37.834Z,98016.31
2023-03-26T19:22:11.497Z,98008.25
2023-03-26T19:24:40.467Z,98008.75
2023-03-26T19:27:07.723Z,98013.88
2023-03-26T19:29:36.593Z,98014.25
2023-03-26T19:32:25.250Z,98010.34
2023-03-26T19:34:52.364Z,98012.66
2023-03-26T19:37:30.228Z,98011.31
2023-03-26T19:40:14.261Z,98011.56
2023-03-26T19:42:44.815Z,98014.78
2023-03-26T19:45:18.274Z,98020.53
2023-03-26T19:47:50.235Z,98021.63
2023-03-26T19:50:27.011Z,98020.88
2023-03-26T19:53:17.731Z,98030.50
2023-03-26T19:56:10.375Z,98031.44
2023-03-26T19:58:37.474Z,98032.50
2023-03-26T20:01:05.467Z,98032.84
2023-03-26T20:03:43.623Z,98034.13
2023-03-26T20:06:13.453Z,98033.69
2023-03-26T20:08:43.880Z,98033.19
2023-03-26T20:11:21.494Z,98031.25
2023-03-26T20:13:52.411Z,98036.28
2023-03-26T20:16:28.020Z,98034.56
2023-03-26T20:19:02.334Z,98036.16
2023-03-26T20:21:30.249Z,98037.63
2023-03-26T20:23:57.241Z,98043.31
2023-03-26T20:26:24.870Z,98043.47
2023-03-26T20:28:53.366Z,98045.63
2023-03-26T20:31:25.291Z,98043.63
2023-03-26T20:33:54.165Z,98048.19
2023-03-26T20:36:33.187Z,98046.66
2023-03-26T20:39:08.074Z,98047.69
2023-03-26T20:41:38.250Z,98048.28
2023-03-26T20:44:15.783Z,98042.75
2023-03-26T20:46:43.963Z,98056.41
2023-03-26T20:49:11.650Z,98057.38
2023-03-26T20:51:39.369Z,98053.81
2023-03-26T20:54:06.617Z,98059.31
2023-03-26T20:56:37.725Z,98066.00
2023-03-26T20:59:11.075Z,98060.69
2023-03-26T21:01:38.906Z,98057.88
2023-03-26T21:04:07.073Z,98059.50
2023-03-26T21:06:34.229Z,98063.84
2023-03-26T23:30:30.183Z,98124.97
2023-03-26T23:33:00.049Z,98124.03
2023-03-26T23:35:27.220Z,98124.50
2023-03-26T23:37:54.216Z,98124.66
2023-03-26T23:40:21.456Z,98127.09
2023-03-26T23:42:49.659Z,98121.75
2023-03-26T23:45:17.475Z,98117.88
2023-03-26T23:47:44.722Z,98124.97
2023-03-26T23:50:11.857Z,98121.03
2023-03-26T23:52:38.859Z,98127.91
2023-03-26T23:55:06.355Z,98127.38
2023-03-26T23:57:33.431Z,98114.75
